sensor_id;sensor_type;location;lat;lon;timestamp;P1;durP1;ratioP1;P2;durP2;ratioP2
20861;SDS011;10591;52.532;13.348;2023-08-01T00:02:17;9.95;;;6.45;;
20861;SDS011;10591;52.532;13.348;2023-08-01T00:04:48;7.75;;;5.47;;
20861;SDS011;10591;52.532;13.348;2023-08-01T00:07:19;9.43;;;6.83;;
20861;SDS011;10591;52.532;13.348;2023-08-01T00:09:49;9.20;;;6.08;;
20861;SDS011;10591;52.532;13.348;2023-08-01T00:12:20;10.13;;;6.03;;
20861;SDS011;10591;52.532;13.348;2023-08-01T00:14:57;9.70;;;5.62;;
20861;SDS011;10591;52.532;13.348;2023-08-01T00:17:23;10.58;;;6.37;;
20861;SDS011;10591;52.532;13.348;2023-08-01T00:19:53;10.20;;;6.65;;
20861;SDS011;10591;52.532;13.348;2023-08-01T00:22:24;9.68;;;5.95;;
20861;SDS011;10591;52.532;13.348;2023-08-01T00:24:55;8.40;;;6.25;;
20861;SDS011;10591;52.532;13.348;2023-08-01T00:27:26;8.23;;;5.83;;
20861;SDS011;10591;52.532;13.348;2023-08-01T00:29:59;8.50;;;6.20;;
20861;SDS011;10591;52.532;13.348;2023-08-01T00:32:29;8.38;;;6.20;;
20861;SDS011;10591;52.532;13.348;2023-08-01T00:35:00;9.58;;;6.37;;
20861;SDS011;10591;52.532;13.348;2023-08-01T00:37:31;10.95;;;6.17;;
20861;SDS011;10591;52.532;13.348;2023-08-01T00:40:02;9.03;;;6.30;;
20861;SDS011;10591;52.532;13.348;2023-08-01T00:42:35;7.72;;;5.65;;
20861;SDS011;10591;52.532;13.348;2023-08-01T00:45:10;7.30;;;5.40;;
20861;SDS011;10591;52.532;13.348;2023-08-01T00:47:41;7.87;;;5.95;;
20861;SDS011;10591;52.532;13.348;2023-08-01T00:50:11;7.35;;;5.78;;
20861;SDS011;10591;52.532;13.348;2023-08-01T00:52:42;7.00;;;5.00;;
20861;SDS011;10591;52.532;13.348;2023-08-01T00:55:14;7.22;;;5.60;;
20861;SDS011;10591;52.532;13.348;2023-08-01T00:57:45;6.75;;;5.12;;
20861;SDS011;10591;52.532;13.348;2023-08-01T01:00:16;8.28;;;5.55;;
20861;SDS011;10591;52.532;13.348;2023-08-01T01:02:49;6.78;;;5.20;;
20861;SDS011;10591;52.532;13.348;2023-08-01T01:05:20;6.83;;;5.03;;
20861;SDS011;10591;52.532;13.348;2023-08-01T01:07:52;8.73;;;5.40;;
20861;SDS011;10591;52.532;13.348;2023-08-01T01:10:24;7.53;;;5.05;;
20861;SDS011;10591;52.532;13.348;2023-08-01T01:12:54;7.33;;;5.35;;
20861;SDS011;10591;52.532;13.348;2023-08-01T01:15:26;7.05;;;4.75;;
20861;SDS011;10591;52.532;13.348;2023-08-01T01:17:57;7.12;;;4.55;;
20861;SDS011;10591;52.532;13.348;2023-08-01T01:20:31;6.83;;;4.97;;
20861;SDS011;10591;52.532;13.348;2023-08-01T01:23:05;6.33;;;4.70;;
20861;SDS011;10591;52.532;13.348;2023-08-01T01:25:37;7.03;;;4.50;;
20861;SDS011;10591;52.532;13.348;2023-08-01T01:28:10;7.87;;;5.25;;
20861;SDS011;10591;52.532;13.348;2023-08-01T01:30:41;7.87;;;5.67;;
20861;SDS011;10591;52.532;13.348;2023-08-01T01:33:13;5.60;;;4.72;;
20861;SDS011;10591;52.532;13.348;2023-08-01T01:35:45;8.35;;;5.97;;
20861;SDS011;10591;52.532;13.348;2023-08-01T01:38:16;8.43;;;5.62;;
20861;SDS011;10591;52.532;13.348;2023-08-01T01:40:47;7.83;;;5.20;;
20861;SDS011;10591;52.532;13.348;2023-08-01T01:43:18;7.12;;;5.42;;
20861;SDS011;10591;52.532;13.348;2023-08-01T01:45:48;9.10;;;5.72;;
20861;SDS011;10591;52.532;13.348;2023-08-01T01:48:19;9.15;;;5.92;;
20861;SDS011;10591;52.532;13.348;2023-08-01T01:50:49;6.53;;;5.17;;
20861;SDS011;10591;52.532;13.348;2023-08-01T01:53:20;10.48;;;6.10;;
20861;SDS011;10591;52.532;13.348;2023-08-01T01:55:51;12.55;;;6.97;;
20861;SDS011;10591;52.532;13.348;2023-08-01T01:58:21;10.48;;;6.33;;
20861;SDS011;10591;52.532;13.348;2023-08-01T02:00:52;6.97;;;5.17;;
20861;SDS011;10591;52.532;13.348;2023-08-01T02:03:22;7.80;;;6.03;;
20861;SDS011;10591;52.532;13.348;2023-08-01T02:05:53;10.43;;;6.62;;
20861;SDS011;10591;52.532;13.348;2023-08-01T02:08:24;9.88;;;6.17;;
20861;SDS011;10591;52.532;13.348;2023-08-01T02:10:55;9.38;;;6.20;;
20861;SDS011;10591;52.532;13.348;2023-08-01T02:13:27;11.03;;;6.58;;
20861;SDS011;10591;52.532;13.348;2023-08-01T02:16:02;8.35;;;6.08;;
20861;SDS011;10591;52.532;13.348;2023-08-01T02:18:32;8.13;;;6.08;;
20861;SDS011;10591;52.532;13.348;2023-08-01T02:21:03;7.35;;;5.22;;
20861;SDS011;10591;52.532;13.348;2023-08-01T02:23:33;10.95;;;7.05;;
20861;SDS011;10591;52.532;13.348;2023-08-01T02:26:06;10.50;;;6.47;;
20861;SDS011;10591;52.532;13.348;2023-08-01T02:28:37;8.45;;;6.12;;
20861;SDS011;10591;52.532;13.348;2023-08-01T02:31:08;7.83;;;5.53;;
20861;SDS011;10591;52.532;13.348;2023-08-01T02:33:38;7.95;;;5.72;;
20861;SDS011;10591;52.532;13.348;2023-08-01T02:36:10;8.00;;;6.22;;
20861;SDS011;10591;52.532;13.348;2023-08-01T02:38:40;9.18;;;5.87;;
20861;SDS011;10591;52.532;13.348;2023-08-01T02:41:12;7.20;;;5.45;;
20861;SDS011;10591;52.532;13.348;2023-08-01T02:43:43;8.05;;;6.28;;
20861;SDS011;10591;52.532;13.348;2023-08-01T02:46:14;9.35;;;6.22;;
20861;SDS011;10591;52.532;13.348;2023-08-01T02:48:44;7.67;;;6.00;;
20861;SDS011;10591;52.532;13.348;2023-08-01T02:51:15;8.15;;;5.75;;
20861;SDS011;10591;52.532;13.348;2023-08-01T02:53:47;9.38;;;6.08;;
20861;SDS011;10591;52.532;13.348;2023-08-01T02:56:17;9.78;;;6.30;;
20861;SDS011;10591;52.532;13.348;2023-08-01T02:58:48;9.83;;;6.37;;
20861;SDS011;10591;52.532;13.348;2023-08-01T03:01:21;7.50;;;6.15;;
20861;SDS011;10591;52.532;13.348;2023-08-01T03:03:52;7.20;;;6.00;;
20861;SDS011;10591;52.532;13.348;2023-08-01T03:06:25;7.42;;;6.20;;
20861;SDS011;10591;52.532;13.348;2023-08-01T03:08:55;10.43;;;6.72;;
20861;SDS011;10591;52.532;13.348;2023-08-01T03:11:28;8.18;;;5.85;;
20861;SDS011;10591;52.532;13.348;2023-08-01T03:13:59;8.33;;;6.33;;
20861;SDS011;10591;52.532;13.348;2023-08-01T03:16:30;7.85;;;6.15;;
20861;SDS011;10591;52.532;13.348;2023-08-01T03:19:01;7.83;;;6.12;;
20861;SDS011;10591;52.532;13.348;2023-08-01T03:21:33;8.80;;;6.28;;
20861;SDS011;10591;52.532;13.348;2023-08-01T03:24:05;8.98;;;6.60;;
20861;SDS011;10591;52.532;13.348;2023-08-01T03:26:38;9.00;;;6.30;;
20861;SDS011;10591;52.532;13.348;2023-08-01T03:29:09;6.90;;;5.87;;
20861;SDS011;10591;52.532;13.348;2023-08-01T03:31:42;9.55;;;6.05;;
20861;SDS011;10591;52.532;13.348;2023-08-01T03:34:13;7.53;;;5.78;;
20861;SDS011;10591;52.532;13.348;2023-08-01T03:36:44;7.87;;;6.42;;
20861;SDS011;10591;52.532;13.348;2023-08-01T03:39:14;7.53;;;6.03;;
20861;SDS011;10591;52.532;13.348;2023-08-01T03:41:45;9.85;;;5.97;;
20861;SDS011;10591;52.532;13.348;2023-08-01T03:44:16;8.08;;;5.80;;
20861;SDS011;10591;52.532;13.348;2023-08-01T03:46:46;6.55;;;5.60;;
20861;SDS011;10591;52.532;13.348;2023-08-01T03:49:19;7.33;;;5.80;;
20861;SDS011;10591;52.532;13.348;2023-08-01T03:51:49;7.35;;;5.58;;
20861;SDS011;10591;52.532;13.348;2023-08-01T03:54:20;7.15;;;5.70;;
20861;SDS011;10591;52.532;13.348;2023-08-01T03:56:51;6.72;;;5.42;;
20861;SDS011;10591;52.532;13.348;2023-08-01T03:59:21;11.00;;;6.87;;
20861;SDS011;10591;52.532;13.348;2023-08-01T04:01:52;9.65;;;5.72;;
20861;SDS011;10591;52.532;13.348;2023-08-01T04:04:23;9.93;;;6.30;;
20861;SDS011;10591;52.532;13.348;2023-08-01T04:06:54;9.08;;;6.15;;
20861;SDS011;10591;52.532;13.348;2023-08-01T04:09:26;8.90;;;5.70;;
20861;SDS011;10591;52.532;13.348;2023-08-01T04:11:57;9.13;;;5.67;;
20861;SDS011;10591;52.532;13.348;2023-08-01T04:14:27;8.48;;;5.75;;
20861;SDS011;10591;52.532;13.348;2023-08-01T04:16:58;7.78;;;5.20;;
20861;SDS011;10591;52.532;13.348;2023-08-01T04:19:29;8.63;;;5.65;;
20861;SDS011;10591;52.532;13.348;2023-08-01T04:21:59;6.65;;;5.12;;
20861;SDS011;10591;52.532;13.348;2023-08-01T04:24:30;7.03;;;4.95;;
20861;SDS011;10591;52.532;13.348;2023-08-01T04:27:01;7.03;;;5.30;;
20861;SDS011;10591;52.532;13.348;2023-08-01T04:29:33;9.33;;;5.75;;
20861;SDS011;10591;52.532;13.348;2023-08-01T04:32:06;8.90;;;5.33;;
20861;SDS011;10591;52.532;13.348;2023-08-01T04:34:37;8.00;;;5.28;;
20861;SDS011;10591;52.532;13.348;2023-08-01T04:37:07;5.97;;;4.90;;
20861;SDS011;10591;52.532;13.348;2023-08-01T04:39:39;6.47;;;4.97;;
20861;SDS011;10591;52.532;13.348;2023-08-01T04:42:10;5.87;;;4.72;;
20861;SDS011;10591;52.532;13.348;2023-08-01T04:44:40;6.55;;;4.67;;
20861;SDS011;10591;52.532;13.348;2023-08-01T04:47:13;7.62;;;4.70;;
20861;SDS011;10591;52.532;13.348;2023-08-01T04:49:44;6.50;;;4.62;;
20861;SDS011;10591;52.532;13.348;2023-08-01T04:52:14;6.62;;;5.08;;
20861;SDS011;10591;52.532;13.348;2023-08-01T04:54:45;6.72;;;4.42;;
20861;SDS011;10591;52.532;13.348;2023-08-01T04:57:16;8.08;;;5.28;;
20861;SDS011;10591;52.532;13.348;2023-08-01T04:59:46;6.70;;;4.95;;
20861;SDS011;10591;52.532;13.348;2023-08-01T05:02:17;6.15;;;4.60;;
20861;SDS011;10591;52.532;13.348;2023-08-01T05:04:48;7.85;;;5.12;;
20861;SDS011;10591;52.532;13.348;2023-08-01T05:07:18;6.58;;;5.28;;
20861;SDS011;10591;52.532;13.348;2023-08-01T05:09:51;8.50;;;6.50;;
20861;SDS011;10591;52.532;13.348;2023-08-01T05:12:21;6.60;;;4.80;;
20861;SDS011;10591;52.532;13.348;2023-08-01T05:14:52;7.78;;;5.37;;
20861;SDS011;10591;52.532;13.348;2023-08-01T05:17:23;6.70;;;5.17;;
20861;SDS011;10591;52.532;13.348;2023-08-01T05:19:54;6.53;;;4.78;;
20861;SDS011;10591;52.532;13.348;2023-08-01T05:22:25;7.87;;;4.97;;
20861;SDS011;10591;52.532;13.348;2023-08-01T05:24:55;7.42;;;5.05;;
20861;SDS011;10591;52.532;13.348;2023-08-01T05:27:27;7.78;;;5.10;;
20861;SDS011;10591;52.532;13.348;2023-08-01T05:29:58;6.15;;;4.65;;
20861;SDS011;10591;52.532;13.348;2023-08-01T05:32:29;5.85;;;5.10;;
20861;SDS011;10591;52.532;13.348;2023-08-01T05:35:01;6.72;;;4.75;;
20861;SDS011;10591;52.532;13.348;2023-08-01T05:37:31;6.17;;;4.62;;
20861;SDS011;10591;52.532;13.348;2023-08-01T05:40:03;6.55;;;4.87;;
20861;SDS011;10591;52.532;13.348;2023-08-01T05:42:37;5.60;;;4.58;;
20861;SDS011;10591;52.532;13.348;2023-08-01T05:45:08;6.12;;;4.50;;
20861;SDS011;10591;52.532;13.348;2023-08-01T05:47:40;6.87;;;4.15;;
20861;SDS011;10591;52.532;13.348;2023-08-01T05:50:11;8.55;;;5.03;;
20861;SDS011;10591;52.532;13.348;2023-08-01T05:52:42;6.97;;;4.87;;
20861;SDS011;10591;52.532;13.348;2023-08-01T05:55:12;5.10;;;4.50;;
20861;SDS011;10591;52.532;13.348;2023-08-01T05:57:43;6.25;;;4.90;;
20861;SDS011;10591;52.532;13.348;2023-08-01T06:00:14;8.30;;;5.08;;
20861;SDS011;10591;52.532;13.348;2023-08-01T06:02:46;7.03;;;4.72;;
20861;SDS011;10591;52.532;13.348;2023-08-01T06:05:17;7.55;;;4.65;;
20861;SDS011;10591;52.532;13.348;2023-08-01T06:07:48;6.45;;;5.00;;
20861;SDS011;10591;52.532;13.348;2023-08-01T06:10:19;6.53;;;5.33;;
20861;SDS011;10591;52.532;13.348;2023-08-01T06:12:52;7.42;;;4.80;;
20861;SDS011;10591;52.532;13.348;2023-08-01T06:15:22;8.18;;;5.08;;
20861;SDS011;10591;52.532;13.348;2023-08-01T06:17:53;5.70;;;4.95;;
20861;SDS011;10591;52.532;13.348;2023-08-01T06:20:23;5.47;;;4.70;;
20861;SDS011;10591;52.532;13.348;2023-08-01T06:22:55;6.78;;;4.92;;
20861;SDS011;10591;52.532;13.348;2023-08-01T06:25:28;6.80;;;5.00;;
20861;SDS011;10591;52.532;13.348;2023-08-01T06:27:58;6.37;;;4.70;;
20861;SDS011;10591;52.532;13.348;2023-08-01T06:30:32;7.28;;;4.20;;
20861;SDS011;10591;52.532;13.348;2023-08-01T06:33:03;7.03;;;4.70;;
20861;SDS011;10591;52.532;13.348;2023-08-01T06:35:34;7.72;;;5.03;;
20861;SDS011;10591;52.532;13.348;2023-08-01T06:38:05;7.42;;;4.90;;
20861;SDS011;10591;52.532;13.348;2023-08-01T06:40:36;6.22;;;4.60;;
20861;SDS011;10591;52.532;13.348;2023-08-01T06:43:07;7.25;;;4.70;;
20861;SDS011;10591;52.532;13.348;2023-08-01T06:45:37;6.37;;;4.50;;
20861;SDS011;10591;52.532;13.348;2023-08-01T06:48:08;6.20;;;4.62;;
20861;SDS011;10591;52.532;13.348;2023-08-01T06:50:39;6.22;;;4.28;;
20861;SDS011;10591;52.532;13.348;2023-08-01T06:53:15;5.03;;;4.10;;
20861;SDS011;10591;52.532;13.348;2023-08-01T06:55:42;6.58;;;4.50;;
20861;SDS011;10591;52.532;13.348;2023-08-01T06:58:12;5.28;;;4.28;;
20861;SDS011;10591;52.532;13.348;2023-08-01T07:00:43;6.97;;;4.75;;
20861;SDS011;10591;52.532;13.348;2023-08-01T07:03:14;5.62;;;4.35;;
20861;SDS011;10591;52.532;13.348;2023-08-01T07:05:50;6.33;;;5.03;;
20861;SDS011;10591;52.532;13.348;2023-08-01T07:08:22;6.90;;;4.97;;
20861;SDS011;10591;52.532;13.348;2023-08-01T07:10:53;5.10;;;3.90;;
20861;SDS011;10591;52.532;13.348;2023-08-01T07:13:28;6.53;;;4.90;;
20861;SDS011;10591;52.532;13.348;2023-08-01T07:15:58;5.55;;;4.15;;
20861;SDS011;10591;52.532;13.348;2023-08-01T07:18:30;6.08;;;4.58;;
20861;SDS011;10591;52.532;13.348;2023-08-01T07:21:02;6.53;;;4.53;;
20861;SDS011;10591;52.532;13.348;2023-08-01T07:23:34;7.60;;;5.03;;
20861;SDS011;10591;52.532;13.348;2023-08-01T07:26:05;5.15;;;4.10;;
20861;SDS011;10591;52.532;13.348;2023-08-01T07:28:36;4.28;;;3.42;;
20861;SDS011;10591;52.532;13.348;2023-08-01T07:31:11;5.12;;;3.92;;
20861;SDS011;10591;52.532;13.348;2023-08-01T07:33:42;6.05;;;4.55;;
20861;SDS011;10591;52.532;13.348;2023-08-01T07:36:13;4.83;;;3.85;;
20861;SDS011;10591;52.532;13.348;2023-08-01T07:38:43;4.78;;;3.95;;
20861;SDS011;10591;52.532;13.348;2023-08-01T07:41:14;5.85;;;4.28;;
20861;SDS011;10591;52.532;13.348;2023-08-01T07:43:45;6.33;;;4.03;;
20861;SDS011;10591;52.532;13.348;2023-08-01T07:46:15;4.30;;;3.55;;
20861;SDS011;10591;52.532;13.348;2023-08-01T07:48:52;4.75;;;4.25;;
20861;SDS011;10591;52.532;13.348;2023-08-01T07:51:20;6.55;;;4.50;;
20861;SDS011;10591;52.532;13.348;2023-08-01T07:53:52;5.33;;;3.92;;
20861;SDS011;10591;52.532;13.348;2023-08-01T07:56:24;7.12;;;4.92;;
20861;SDS011;10591;52.532;13.348;2023-08-01T07:58:55;6.70;;;4.40;;
20861;SDS011;10591;52.532;13.348;2023-08-01T08:01:26;7.37;;;4.45;;
20861;SDS011;10591;52.532;13.348;2023-08-01T08:03:57;6.72;;;4.80;;
20861;SDS011;10591;52.532;13.348;2023-08-01T08:06:29;5.33;;;3.90;;
20861;SDS011;10591;52.532;13.348;2023-08-01T08:09:00;5.03;;;3.58;;
20861;SDS011;10591;52.532;13.348;2023-08-01T08:11:31;4.35;;;3.92;;
20861;SDS011;10591;52.532;13.348;2023-08-01T08:14:02;6.53;;;4.10;;
20861;SDS011;10591;52.532;13.348;2023-08-01T08:16:33;5.60;;;3.92;;
20861;SDS011;10591;52.532;13.348;2023-08-01T08:19:04;4.33;;;3.60;;
20861;SDS011;10591;52.532;13.348;2023-08-01T08:21:38;3.95;;;3.45;;
20861;SDS011;10591;52.532;13.348;2023-08-01T08:24:09;4.70;;;3.35;;
20861;SDS011;10591;52.532;13.348;2023-08-01T08:26:40;5.00;;;3.55;;
20861;SDS011;10591;52.532;13.348;2023-08-01T08:29:11;3.85;;;3.27;;
20861;SDS011;10591;52.532;13.348;2023-08-01T08:31:42;6.40;;;4.33;;
20861;SDS011;10591;52.532;13.348;2023-08-01T08:34:13;4.62;;;3.50;;
20861;SDS011;10591;52.532;13.348;2023-08-01T08:36:44;3.40;;;3.08;;
20861;SDS011;10591;52.532;13.348;2023-08-01T08:39:15;3.77;;;2.75;;
20861;SDS011;10591;52.532;13.348;2023-08-01T08:41:49;4.55;;;3.60;;
20861;SDS011;10591;52.532;13.348;2023-08-01T08:44:21;3.75;;;3.08;;
20861;SDS011;10591;52.532;13.348;2023-08-01T08:46:53;3.45;;;3.15;;
20861;SDS011;10591;52.532;13.348;2023-08-01T08:49:25;3.77;;;3.12;;
20861;SDS011;10591;52.532;13.348;2023-08-01T08:51:57;4.40;;;3.30;;
20861;SDS011;10591;52.532;13.348;2023-08-01T08:54:28;4.47;;;3.20;;
20861;SDS011;10591;52.532;13.348;2023-08-01T08:57:01;4.25;;;3.37;;
20861;SDS011;10591;52.532;13.348;2023-08-01T08:59:35;3.40;;;3.10;;
20861;SDS011;10591;52.532;13.348;2023-08-01T09:02:06;5.42;;;4.15;;
20861;SDS011;10591;52.532;13.348;2023-08-01T09:04:37;5.08;;;3.08;;
20861;SDS011;10591;52.532;13.348;2023-08-01T09:07:09;3.70;;;2.83;;
20861;SDS011;10591;52.532;13.348;2023-08-01T09:09:40;3.33;;;3.00;;
20861;SDS011;10591;52.532;13.348;2023-08-01T09:12:13;3.15;;;2.62;;
20861;SDS011;10591;52.532;13.348;2023-08-01T09:14:43;4.60;;;3.30;;
20861;SDS011;10591;52.532;13.348;2023-08-01T09:17:15;3.72;;;3.05;;
20861;SDS011;10591;52.532;13.348;2023-08-01T09:19:47;3.00;;;2.80;;
20861;SDS011;10591;52.532;13.348;2023-08-01T09:22:20;4.33;;;3.00;;
20861;SDS011;10591;52.532;13.348;2023-08-01T09:24:51;3.35;;;2.77;;
20861;SDS011;10591;52.532;13.348;2023-08-01T09:27:22;4.20;;;2.67;;
20861;SDS011;10591;52.532;13.348;2023-08-01T09:30:04;3.83;;;2.65;;
20861;SDS011;10591;52.532;13.348;2023-08-01T09:32:28;4.75;;;2.55;;
20861;SDS011;10591;52.532;13.348;2023-08-01T09:34:58;3.55;;;2.80;;
20861;SDS011;10591;52.532;13.348;2023-08-01T09:37:39;3.80;;;2.60;;
20861;SDS011;10591;52.532;13.348;2023-08-01T09:40:11;3.30;;;2.80;;
20861;SDS011;10591;52.532;13.348;2023-08-01T09:42:45;2.87;;;2.58;;
20861;SDS011;10591;52.532;13.348;2023-08-01T09:45:16;3.40;;;2.80;;
20861;SDS011;10591;52.532;13.348;2023-08-01T09:47:47;2.72;;;2.52;;
20861;SDS011;10591;52.532;13.348;2023-08-01T09:50:21;3.47;;;2.90;;
20861;SDS011;10591;52.532;13.348;2023-08-01T09:52:54;3.33;;;3.02;;
20861;SDS011;10591;52.532;13.348;2023-08-01T09:55:31;4.35;;;3.17;;
20861;SDS011;10591;52.532;13.348;2023-08-01T09:58:02;4.05;;;3.10;;
20861;SDS011;10591;52.532;13.348;2023-08-01T10:00:47;3.45;;;2.60;;
20861;SDS011;10591;52.532;13.348;2023-08-01T10:03:22;4.20;;;3.10;;
20861;SDS011;10591;52.532;13.348;2023-08-01T10:05:53;3.22;;;2.80;;
20861;SDS011;10591;52.532;13.348;2023-08-01T10:08:26;4.37;;;2.85;;
20861;SDS011;10591;52.532;13.348;2023-08-01T10:11:03;2.87;;;2.50;;
20861;SDS011;10591;52.532;13.348;2023-08-01T10:13:34;4.00;;;3.05;;
20861;SDS011;10591;52.532;13.348;2023-08-01T10:16:06;4.45;;;2.90;;
20861;SDS011;10591;52.532;13.348;2023-08-01T10:18:40;3.02;;;2.30;;
20861;SDS011;10591;52.532;13.348;2023-08-01T10:21:14;3.12;;;2.37;;
20861;SDS011;10591;52.532;13.348;2023-08-01T10:23:46;3.40;;;3.10;;
20861;SDS011;10591;52.532;13.348;2023-08-01T10:26:18;4.30;;;3.05;;
20861;SDS011;10591;52.532;13.348;2023-08-01T10:28:51;3.42;;;2.85;;
20861;SDS011;10591;52.532;13.348;2023-08-01T10:31:22;4.15;;;2.65;;
20861;SDS011;10591;52.532;13.348;2023-08-01T10:34:02;2.87;;;2.35;;
20861;SDS011;10591;52.532;13.348;2023-08-01T10:36:35;3.22;;;2.45;;
20861;SDS011;10591;52.532;13.348;2023-08-01T10:39:07;3.90;;;2.95;;
20861;SDS011;10591;52.532;13.348;2023-08-01T10:41:39;3.65;;;2.87;;
20861;SDS011;10591;52.532;13.348;2023-08-01T10:44:12;3.10;;;2.58;;
20861;SDS011;10591;52.532;13.348;2023-08-01T10:49:32;4.12;;;2.95;;
20861;SDS011;10591;52.532;13.348;2023-08-01T10:52:18;4.72;;;3.08;;
20861;SDS011;10591;52.532;13.348;2023-08-01T10:54:59;4.72;;;2.87;;
20861;SDS011;10591;52.532;13.348;2023-08-01T10:57:35;4.62;;;3.00;;
20861;SDS011;10591;52.532;13.348;2023-08-01T11:00:06;3.75;;;2.98;;
20861;SDS011;10591;52.532;13.348;2023-08-01T11:02:38;5.08;;;3.33;;
20861;SDS011;10591;52.532;13.348;2023-08-01T11:05:10;3.80;;;2.62;;
20861;SDS011;10591;52.532;13.348;2023-08-01T11:07:41;4.05;;;2.70;;
20861;SDS011;10591;52.532;13.348;2023-08-01T11:10:13;3.62;;;2.62;;
20861;SDS011;10591;52.532;13.348;2023-08-01T11:12:45;3.70;;;2.90;;
20861;SDS011;10591;52.532;13.348;2023-08-01T11:15:18;3.65;;;2.98;;
20861;SDS011;10591;52.532;13.348;2023-08-01T11:17:56;4.90;;;3.10;;
20861;SDS011;10591;52.532;13.348;2023-08-01T11:20:24;3.33;;;2.80;;
20861;SDS011;10591;52.532;13.348;2023-08-01T11:23:00;4.15;;;3.27;;
20861;SDS011;10591;52.532;13.348;2023-08-01T11:25:34;3.90;;;3.12;;
20861;SDS011;10591;52.532;13.348;2023-08-01T11:28:07;4.35;;;3.25;;
20861;SDS011;10591;52.532;13.348;2023-08-01T11:30:39;5.30;;;3.10;;
20861;SDS011;10591;52.532;13.348;2023-08-01T11:33:14;5.30;;;3.90;;
20861;SDS011;10591;52.532;13.348;2023-08-01T11:35:54;5.55;;;3.98;;
20861;SDS011;10591;52.532;13.348;2023-08-01T11:38:29;5.60;;;4.12;;
20861;SDS011;10591;52.532;13.348;2023-08-01T11:41:03;5.35;;;3.80;;
20861;SDS011;10591;52.532;13.348;2023-08-01T11:43:46;6.62;;;4.33;;
20861;SDS011;10591;52.532;13.348;2023-08-01T11:46:12;6.92;;;4.28;;
20861;SDS011;10591;52.532;13.348;2023-08-01T11:48:46;5.53;;;4.42;;
20861;SDS011;10591;52.532;13.348;2023-08-01T11:51:19;6.65;;;4.65;;
20861;SDS011;10591;52.532;13.348;2023-08-01T11:54:04;7.20;;;4.92;;
20861;SDS011;10591;52.532;13.348;2023-08-01T11:56:32;6.70;;;4.30;;
20861;SDS011;10591;52.532;13.348;2023-08-01T12:01:45;4.62;;;4.03;;
20861;SDS011;10591;52.532;13.348;2023-08-01T12:04:25;6.65;;;5.00;;
20861;SDS011;10591;52.532;13.348;2023-08-01T12:06:56;6.20;;;4.90;;
20861;SDS011;10591;52.532;13.348;2023-08-01T12:09:31;5.00;;;4.50;;
20861;SDS011;10591;52.532;13.348;2023-08-01T12:12:02;5.42;;;4.37;;
20861;SDS011;10591;52.532;13.348;2023-08-01T12:14:33;6.25;;;4.85;;
20861;SDS011;10591;52.532;13.348;2023-08-01T12:17:06;4.67;;;4.08;;
20861;SDS011;10591;52.532;13.348;2023-08-01T12:19:41;4.33;;;3.90;;
20861;SDS011;10591;52.532;13.348;2023-08-01T12:22:12;5.78;;;4.72;;
20861;SDS011;10591;52.532;13.348;2023-08-01T12:24:45;5.00;;;4.22;;
20861;SDS011;10591;52.532;13.348;2023-08-01T12:27:16;5.83;;;4.30;;
20861;SDS011;10591;52.532;13.348;2023-08-01T12:29:47;6.53;;;5.17;;
20861;SDS011;10591;52.532;13.348;2023-08-01T12:32:17;7.58;;;5.53;;
20861;SDS011;10591;52.532;13.348;2023-08-01T12:34:48;6.75;;;4.30;;
20861;SDS011;10591;52.532;13.348;2023-08-01T12:37:19;5.50;;;4.42;;
20861;SDS011;10591;52.532;13.348;2023-08-01T12:39:49;6.65;;;4.92;;
20861;SDS011;10591;52.532;13.348;2023-08-01T12:42:23;6.87;;;4.85;;
20861;SDS011;10591;52.532;13.348;2023-08-01T12:44:55;5.15;;;4.58;;
20861;SDS011;10591;52.532;13.348;2023-08-01T12:47:26;7.25;;;5.03;;
20861;SDS011;10591;52.532;13.348;2023-08-01T12:49:57;6.83;;;5.03;;
20861;SDS011;10591;52.532;13.348;2023-08-01T12:52:28;6.42;;;4.05;;
20861;SDS011;10591;52.532;13.348;2023-08-01T12:54:59;5.55;;;4.40;;
20861;SDS011;10591;52.532;13.348;2023-08-01T12:57:30;6.25;;;4.60;;
20861;SDS011;10591;52.532;13.348;2023-08-01T13:00:02;5.50;;;4.62;;
20861;SDS011;10591;52.532;13.348;2023-08-01T13:02:34;5.55;;;4.60;;
20861;SDS011;10591;52.532;13.348;2023-08-01T13:05:04;6.15;;;4.78;;
20861;SDS011;10591;52.532;13.348;2023-08-01T13:07:35;6.90;;;4.72;;
20861;SDS011;10591;52.532;13.348;2023-08-01T13:10:06;6.03;;;4.17;;
20861;SDS011;10591;52.532;13.348;2023-08-01T13:12:37;5.50;;;4.20;;
20861;SDS011;10591;52.532;13.348;2023-08-01T13:15:08;5.42;;;4.30;;
20861;SDS011;10591;52.532;13.348;2023-08-01T13:17:40;4.72;;;4.33;;
20861;SDS011;10591;52.532;13.348;2023-08-01T13:20:11;6.65;;;4.40;;
20861;SDS011;10591;52.532;13.348;2023-08-01T13:22:42;6.33;;;4.58;;
20861;SDS011;10591;52.532;13.348;2023-08-01T13:25:14;6.67;;;4.45;;
20861;SDS011;10591;52.532;13.348;2023-08-01T13:27:45;5.22;;;4.53;;
20861;SDS011;10591;52.532;13.348;2023-08-01T13:30:16;7.47;;;4.62;;
20861;SDS011;10591;52.532;13.348;2023-08-01T13:32:47;6.12;;;5.08;;
20861;SDS011;10591;52.532;13.348;2023-08-01T13:35:18;6.22;;;4.45;;
20861;SDS011;10591;52.532;13.348;2023-08-01T13:37:50;4.97;;;4.47;;
20861;SDS011;10591;52.532;13.348;2023-08-01T13:40:21;7.40;;;4.55;;
20861;SDS011;10591;52.532;13.348;2023-08-01T13:42:53;6.17;;;4.28;;
20861;SDS011;10591;52.532;13.348;2023-08-01T13:45:24;6.35;;;4.90;;
20861;SDS011;10591;52.532;13.348;2023-08-01T13:47:56;5.22;;;4.45;;
20861;SDS011;10591;52.532;13.348;2023-08-01T13:50:29;6.45;;;4.60;;
20861;SDS011;10591;52.532;13.348;2023-08-01T13:53:00;6.87;;;4.60;;
20861;SDS011;10591;52.532;13.348;2023-08-01T13:55:31;7.65;;;5.60;;
20861;SDS011;10591;52.532;13.348;2023-08-01T13:58:02;5.72;;;4.35;;
20861;SDS011;10591;52.532;13.348;2023-08-01T14:00:35;7.60;;;4.67;;
20861;SDS011;10591;52.532;13.348;2023-08-01T14:03:05;7.05;;;4.15;;
20861;SDS011;10591;52.532;13.348;2023-08-01T14:05:36;6.08;;;4.60;;
20861;SDS011;10591;52.532;13.348;2023-08-01T14:08:07;6.15;;;4.42;;
20861;SDS011;10591;52.532;13.348;2023-08-01T14:10:37;6.17;;;4.53;;
20861;SDS011;10591;52.532;13.348;2023-08-01T14:13:08;6.50;;;4.75;;
20861;SDS011;10591;52.532;13.348;2023-08-01T14:15:39;5.72;;;5.00;;
20861;SDS011;10591;52.532;13.348;2023-08-01T14:18:09;6.00;;;4.33;;
20861;SDS011;10591;52.532;13.348;2023-08-01T14:20:40;6.90;;;4.78;;
20861;SDS011;10591;52.532;13.348;2023-08-01T14:23:10;6.78;;;4.33;;
20861;SDS011;10591;52.532;13.348;2023-08-01T14:25:42;6.95;;;4.17;;
20861;SDS011;10591;52.532;13.348;2023-08-01T14:28:13;6.20;;;4.60;;
20861;SDS011;10591;52.532;13.348;2023-08-01T14:30:44;6.70;;;4.60;;
20861;SDS011;10591;52.532;13.348;2023-08-01T14:33:15;4.60;;;4.17;;
20861;SDS011;10591;52.532;13.348;2023-08-01T14:35:46;5.47;;;4.45;;
20861;SDS011;10591;52.532;13.348;2023-08-01T14:38:16;6.08;;;4.65;;
20861;SDS011;10591;52.532;13.348;2023-08-01T14:40:47;7.95;;;4.53;;
20861;SDS011;10591;52.532;13.348;2023-08-01T14:43:20;5.10;;;4.50;;
20861;SDS011;10591;52.532;13.348;2023-08-01T14:45:52;5.05;;;4.20;;
20861;SDS011;10591;52.532;13.348;2023-08-01T14:48:23;6.20;;;4.37;;
20861;SDS011;10591;52.532;13.348;2023-08-01T14:50:54;6.90;;;4.37;;
20861;SDS011;10591;52.532;13.348;2023-08-01T14:53:25;5.45;;;4.53;;
20861;SDS011;10591;52.532;13.348;2023-08-01T14:55:57;5.00;;;4.10;;
20861;SDS011;10591;52.532;13.348;2023-08-01T14:58:32;5.12;;;3.70;;
20861;SDS011;10591;52.532;13.348;2023-08-01T15:01:11;4.05;;;3.37;;
20861;SDS011;10591;52.532;13.348;2023-08-01T15:03:44;6.78;;;4.97;;
20861;SDS011;10591;52.532;13.348;2023-08-01T15:06:15;4.33;;;3.75;;